Time;durP1;ratioP1;P1;durP2;ratioP2;P2;SDS_P1;SDS_P2;PMS_P1;PMS_P2;Temp;Humidity;BMP_temperature;BMP_pressure;BME280_temperature;BME280_humidity;BME280_pressure;Samples;Min_cycle;Max_cycle;Signal;HPM_P1;HPM_P2
2021/05/11 00:00:56;;;;;;;20.50;6.13;;;14.70;1.00;;;;;;4993037;28;20816;-80
2021/05/11 00:04:02;;;;;;;15.37;6.27;;;14.60;1.00;;;;;;4997223;28;20467;-80
2021/05/11 00:06:33;;;;;;;13.57;6.80;;;14.70;1.00;;;;;;4979128;28;20419;-80
2021/05/11 00:08:59;;;;;;;14.50;7.33;;;;;;;;;;4991539;28;20403;-80
2021/05/11 00:11:27;;;;;;;17.40;7.30;;;14.60;1.00;;;;;;4981822;28;20913;-79
2021/05/11 00:14:05;;;;;;;13.83;6.93;;;14.60;1.00;;;;;;4995768;28;20417;-80
2021/05/11 00:16:45;;;;;;;13.23;7.00;;;14.60;1.00;;;;;;4996630;28;20439;-80
2021/05/11 00:20:02;;;;;;;9.83;6.20;;;14.60;1.00;;;;;;4993492;28;20414;-80
2021/05/11 00:23:08;;;;;;;13.33;6.83;;;14.60;1.00;;;;;;4992131;28;20427;-80
2021/05/11 00:25:45;;;;;;;13.33;6.13;;;14.40;1.00;;;;;;4993602;28;20512;-80
2021/05/11 00:28:38;;;;;;;10.60;5.50;;;14.60;1.00;;;;;;4976481;28;20483;-80
2021/05/11 00:31:09;;;;;;;13.87;6.50;;;14.60;1.00;;;;;;4993304;28;20425;-80
2021/05/11 00:33:52;;;;;;;10.57;6.23;;;14.60;1.00;;;;;;4997025;28;20401;-80
2021/05/11 00:36:21;;;;;;;17.73;7.10;;;14.60;1.00;;;;;;4996472;28;20434;-80
2021/05/11 00:39:03;;;;;;;14.30;5.90;;;14.50;1.00;;;;;;4996281;28;20891;-80
2021/05/11 00:41:39;;;;;;;11.27;6.23;;;14.40;1.00;;;;;;4995935;28;20891;-78
2021/05/11 00:44:26;;;;;;;15.77;7.20;;;14.50;1.00;;;;;;4995252;28;20417;-77
2021/05/11 00:47:00;;;;;;;14.93;6.47;;;14.60;1.00;;;;;;4996682;28;20376;-76
2021/05/11 00:49:28;;;;;;;10.77;5.90;;;14.60;1.00;;;;;;4995972;28;20912;-76
2021/05/11 00:52:05;;;;;;;24.00;7.03;;;14.50;1.00;;;;;;4992486;28;20502;-76
2021/05/11 00:54:56;;;;;;;13.60;6.03;;;14.50;1.00;;;;;;4990291;28;20895;-76
2021/05/11 00:57:34;;;;;;;16.43;7.30;;;14.50;1.00;;;;;;4996005;28;20384;-77
2021/05/11 01:00:07;;;;;;;15.60;6.67;;;14.60;1.00;;;;;;4990583;28;20411;-77
2021/05/11 01:02:33;;;;;;;13.53;6.80;;;14.60;1.00;;;;;;4979051;28;20421;-77
2021/05/11 01:04:59;;;;;;;12.63;6.50;;;;;;;;;;4996213;28;20442;-77
2021/05/11 01:07:50;;;;;;;15.30;7.03;;;14.50;1.00;;;;;;4996251;28;20464;-77
2021/05/11 01:10:21;;;;;;;12.47;6.50;;;14.50;1.00;;;;;;4995472;28;20483;-76
2021/05/11 01:12:57;;;;;;;16.40;7.20;;;14.60;1.00;;;;;;5011318;28;20923;-81
2021/05/11 01:16:02;;;;;;;16.87;7.33;;;14.40;1.00;;;;;;4996245;28;20473;-80
2021/05/11 01:18:35;;;;;;;13.23;6.27;;;14.40;1.00;;;;;;4995737;28;20444;-80
2021/05/11 01:21:22;;;;;;;14.03;7.10;;;14.30;1.00;;;;;;4995220;28;20828;-80
2021/05/11 01:59:23;;;;;;;19.97;8.33;;;14.10;1.00;;;;;;4994676;28;20394;-77
2021/05/11 02:23:26;;;;;;;15.27;6.07;;;13.80;1.00;;;;;;4914977;29;20457;-77
2021/05/11 02:25:51;;;;;;;20.13;6.80;;;13.90;1.00;;;;;;4914269;29;20445;-77
2021/05/11 02:28:17;;;;;;;23.60;7.27;;;13.90;1.00;;;;;;4914902;29;20523;-78
2021/05/11 02:30:43;;;;;;;19.60;7.70;;;;;;;;;;4914803;29;20204;-77
2021/05/11 02:33:09;;;;;;;34.87;7.30;;;;;;;;;;4914491;29;20690;-77
2021/05/11 02:35:35;;;;;;;14.40;7.73;;;;;;;;;;4899079;29;21003;-77
2021/05/11 02:38:01;;;;;;;17.33;7.60;;;13.90;1.00;;;;;;4898546;29;20455;-77
2021/05/11 02:40:28;;;;;;;19.93;7.53;;;;;;;;;;4914936;29;20798;-77
2021/05/11 02:43:06;;;;;;;19.33;7.20;;;13.70;1.00;;;;;;4910489;29;20421;-80
2021/05/11 02:45:50;;;;;;;20.13;8.27;;;14.00;1.00;;;;;;4912178;29;20403;-80
2021/05/11 02:48:21;;;;;;;15.27;7.27;;;13.90;1.00;;;;;;4915313;29;20992;-80
2021/05/11 02:50:51;;;;;;;26.83;8.30;;;13.90;1.00;;;;;;4915551;29;20909;-80
2021/05/11 02:53:33;;;;;;;25.30;7.53;;;13.90;1.00;;;;;;4899745;29;20522;-80
2021/05/11 02:56:03;;;;;;;15.30;7.00;;;13.90;1.00;;;;;;4915143;29;20963;-80
2021/05/11 02:58:49;;;;;;;15.17;7.30;;;;;;;;;;4986360;28;20424;-80
2021/05/11 03:01:39;;;;;;;13.60;6.33;;;13.80;1.00;;;;;;4994401;28;20385;-80
2021/05/11 03:07:26;;;;;;;15.80;7.50;;;13.80;1.00;;;;;;4994412;28;20427;-80
2021/05/11 03:10:38;;;;;;;12.33;6.70;;;13.70;1.00;;;;;;4992896;28;20415;-80
2021/05/11 03:13:32;;;;;;;18.60;7.10;;;13.70;1.00;;;;;;4994206;28;20193;-77
2021/05/11 03:15:58;;;;;;;13.80;6.50;;;13.60;1.00;;;;;;4993931;28;20473;-77
2021/05/11 03:18:27;;;;;;;18.93;8.30;;;;;;;;;;4993723;28;20490;-76
2021/05/11 03:21:09;;;;;;;16.17;7.70;;;;;;;;;;4992083;28;20528;-77
2021/05/11 03:23:39;;;;;;;17.13;6.87;;;;;;;;;;5008877;28;20388;-77
2021/05/11 03:26:26;;;;;;;16.13;8.13;;;13.60;1.00;;;;;;4995181;28;20474;-77
2021/05/11 03:29:03;;;;;;;14.63;7.27;;;;;;;;;;4996619;28;21259;-80
2021/05/11 03:31:29;;;;;;;14.57;6.67;;;;;;;;;;4997694;28;20432;-79
2021/05/11 03:34:32;;;;;;;17.50;7.07;;;13.50;1.00;;;;;;4997748;28;20400;-81
2021/05/11 03:36:58;;;;;;;14.83;7.17;;;13.60;1.00;;;;;;4996649;28;20431;-80
2021/05/11 03:39:44;;;;;;;19.20;6.97;;;13.60;1.00;;;;;;4997247;28;20440;-80
2021/05/11 03:42:59;;;;;;;14.20;6.67;;;13.60;1.00;;;;;;4994304;28;20188;-80
2021/05/11 03:46:07;;;;;;;16.43;6.30;;;;;;;;;;4993575;28;20434;-80
2021/05/11 03:48:39;;;;;;;10.90;5.70;;;;;;;;;;4985559;28;20417;-80
2021/05/11 03:51:09;;;;;;;14.30;7.10;;;;;;;;;;4989826;28;20459;-80
2021/05/11 03:53:35;;;;;;;14.67;6.23;;;13.40;1.00;;;;;;4977854;28;20394;-80
2021/05/11 03:56:09;;;;;;;18.30;7.80;;;;;;;;;;4977817;28;20425;-80
2021/05/11 03:58:57;;;;;;;15.60;7.10;;;13.40;1.00;;;;;;4978283;28;20390;-83
2021/05/11 04:01:39;;;;;;;15.93;7.10;;;;;;;;;;4994884;28;20413;-77
2021/05/11 04:04:15;;;;;;;23.40;7.87;;;;;;;;;;4996159;28;20436;-77
2021/05/11 04:06:51;;;;;;;23.10;7.50;;;;;;;;;;4996743;28;20405;-77
2021/05/11 04:09:43;;;;;;;24.13;8.17;;;;;;;;;;4997267;28;20424;-77
2021/05/11 04:18:08;;;;;;;18.80;7.40;;;13.50;1.00;;;;;;4996450;28;20419;-77
2021/05/11 04:20:34;;;;;;;18.17;7.93;;;13.50;1.00;;;;;;4996298;28;20413;-77
2021/05/11 04:23:15;;;;;;;29.50;8.80;;;13.50;1.00;;;;;;4996826;28;20403;-80
2021/05/11 04:25:46;;;;;;;15.13;7.40;;;13.60;1.00;;;;;;4996624;28;20175;-80
2021/05/11 04:28:29;;;;;;;14.37;6.90;;;13.40;1.00;;;;;;4996582;28;20870;-80
2021/05/11 04:31:04;;;;;;;19.47;7.10;;;13.60;1.00;;;;;;4996900;28;20443;-77
2021/05/11 04:33:33;;;;;;;15.73;7.00;;;;;;;;;;4996632;28;20483;-79
2021/05/11 04:36:04;;;;;;;17.77;7.00;;;13.70;1.00;;;;;;5010521;28;20974;-80
2021/05/11 04:38:30;;;;;;;15.23;6.43;;;13.70;1.00;;;;;;4996773;28;20397;-80
2021/05/11 04:40:57;;;;;;;16.80;7.80;;;13.70;1.00;;;;;;4995003;28;20895;-80
2021/05/11 04:43:35;;;;;;;21.20;7.90;;;;;;;;;;4989706;28;20464;-79
2021/05/11 04:48:58;;;;;;;17.60;7.20;;;13.80;1.00;;;;;;4989056;28;20391;-76
2021/05/11 04:51:27;;;;;;;14.30;7.00;;;13.70;1.00;;;;;;4987153;28;20438;-77
2021/05/11 04:53:57;;;;;;;21.13;7.50;;;13.90;1.00;;;;;;4977459;28;20501;-77
2021/05/11 04:56:22;;;;;;;21.13;8.60;;;14.00;1.00;;;;;;4987683;28;20519;-76
2021/05/11 04:58:51;;;;;;;15.60;7.50;;;14.00;1.00;;;;;;4996005;28;20417;-79
2021/05/11 05:01:21;;;;;;;13.30;6.90;;;14.10;1.00;;;;;;4996354;28;20676;-77
2021/05/11 05:03:53;;;;;;;16.80;7.90;;;14.20;1.00;;;;;;4995051;28;20417;-76
2021/05/11 05:06:33;;;;;;;17.07;6.87;;;;;;;;;;4996088;28;20431;-77
2021/05/11 05:09:03;;;;;;;14.83;7.20;;;14.50;1.00;;;;;;4995551;28;20796;-76
2021/05/11 05:11:40;;;;;;;16.70;7.83;;;14.20;1.00;;;;;;4996152;28;20376;-76
2021/05/11 05:14:09;;;;;;;24.37;7.57;;;14.40;1.00;;;;;;4996027;28;20772;-79
2021/05/11 05:16:36;;;;;;;19.67;7.50;;;14.60;1.00;;;;;;4995708;28;20511;-76
2021/05/11 05:19:03;;;;;;;18.03;7.73;;;14.40;1.00;;;;;;4995692;28;20869;-77
2021/05/11 05:21:30;;;;;;;12.83;7.30;;;14.40;1.00;;;;;;4995657;28;20435;-76
2021/05/11 05:24:10;;;;;;;14.40;6.90;;;14.50;1.00;;;;;;4995560;28;20420;-76
2021/05/11 05:26:50;;;;;;;15.90;8.07;;;14.50;1.00;;;;;;4995802;28;20389;-77
2021/05/11 05:29:16;;;;;;;17.80;8.30;;;;;;;;;;4995944;28;20412;-80
2021/05/11 05:31:57;;;;;;;16.80;8.07;;;14.60;1.00;;;;;;4998012;28;20904;-80
2021/05/11 05:35:08;;;;;;;18.23;8.43;;;14.80;1.00;;;;;;4995461;28;20835;-80
2021/05/11 05:37:39;;;;;;;17.77;8.33;;;14.80;1.00;;;;;;4995209;28;20417;-80
2021/05/11 05:40:22;;;;;;;16.23;8.40;;;15.00;1.00;;;;;;4995808;28;20500;-80
2021/05/11 05:42:51;;;;;;;17.93;9.07;;;15.10;1.00;;;;;;5007382;28;20451;-81
2021/05/11 05:45:21;;;;;;;19.53;8.50;;;15.20;1.00;;;;;;4994133;28;20502;-80
2021/05/11 05:48:21;;;;;;;17.10;8.73;;;15.30;1.00;;;;;;4987594;28;20408;-80
2021/05/11 05:51:21;;;;;;;17.13;9.50;;;15.50;1.00;;;;;;4994013;28;20432;-80
2021/05/11 05:57:08;;;;;;;19.50;8.53;;;15.80;1.00;;;;;;4994786;28;20395;-80
2021/05/11 05:59:39;;;;;;;20.33;9.03;;;16.00;1.00;;;;;;4995063;28;20391;-80
2021/05/11 06:02:18;;;;;;;16.57;8.37;;;15.90;1.00;;;;;;4994639;28;20173;-80
2021/05/11 06:04:51;;;;;;;17.87;8.43;;;16.00;1.00;;;;;;4974273;28;20492;-80
2021/05/11 06:07:17;;;;;;;21.63;9.30;;;;;;;;;;4976014;28;23671;-80
2021/05/11 06:09:43;;;;;;;14.97;9.07;;;;;;;;;;4986376;28;20759;-80
2021/05/11 06:12:31;;;;;;;16.33;8.57;;;16.10;1.00;;;;;;4985157;28;20421;-80
2021/05/11 06:17:03;;;;;;;17.10;9.27;;;;;;;;;;4975224;28;20810;-80
2021/05/11 06:17:49;;;;;;;17.30;8.70;;;16.20;1.00;;;;;;4978113;28;20471;-80
2021/05/11 06:20:15;;;;;;;26.87;8.43;;;16.20;1.00;;;;;;4992806;28;20552;-80
2021/05/11 06:22:41;;;;;;;15.13;7.83;;;16.30;1.00;;;;;;4994117;28;20162;-80
2021/05/11 06:25:09;;;;;;;17.63;8.57;;;16.20;1.00;;;;;;4993945;28;20261;-80
2021/05/11 06:27:35;;;;;;;16.13;8.70;;;;;;;;;;4993764;28;20603;-80
2021/05/11 06:30:01;;;;;;;22.00;8.53;;;;;;;;;;4994262;28;20726;-80
2021/05/11 06:32:28;;;;;;;24.90;9.50;;;;;;;;;;4991669;28;20382;-80
2021/05/11 06:34:58;;;;;;;16.93;8.23;;;;;;;;;;4978688;28;20908;-80
2021/05/11 06:37:24;;;;;;;15.70;8.37;;;;;;;;;;4986177;28;20616;-80
2021/05/11 06:39:51;;;;;;;11.40;7.33;;;;;;;;;;4974311;28;20365;-80
2021/05/11 06:42:21;;;;;;;14.77;7.73;;;;;;;;;;4974269;28;20393;-80
2021/05/11 06:45:15;;;;;;;12.77;7.57;;;;;;;;;;4973349;28;20830;-79
2021/05/11 06:48:02;;;;;;;11.43;6.93;;;;;;;;;;4985088;28;20748;-77
2021/05/11 06:50:33;;;;;;;12.90;7.27;;;;;;;;;;4992384;28;20410;-77
2021/05/11 06:55:25;;;;;;;12.67;7.57;;;;;;;;;;4994123;28;20470;-77
2021/05/11 06:57:51;;;;;;;13.67;7.73;;;;;;;;;;4993466;28;20422;-77
2021/05/11 07:00:17;;;;;;;15.50;7.67;;;;;;;;;;4996651;28;20384;-80
2021/05/11 07:02:43;;;;;;;11.40;7.07;;;;;;;;;;4997539;28;20378;-80
2021/05/11 07:05:09;;;;;;;13.03;6.93;;;16.90;1.00;;;;;;4996261;28;20820;-80
2021/05/11 07:07:36;;;;;;;12.60;7.20;;;;;;;;;;4997313;28;21010;-80
2021/05/11 07:15:14;;;;;;;14.10;7.03;;;;;;;;;;4998084;28;20442;-77
2021/05/11 07:17:40;;;;;;;12.67;6.97;;;;;;;;;;4997316;28;20401;-77
2021/05/11 07:20:06;;;;;;;14.50;8.00;;;;;;;;;;4996597;28;20399;-80
2021/05/11 07:22:32;;;;;;;13.90;7.60;;;;;;;;;;4997058;28;20851;-80
2021/05/11 07:24:59;;;;;;;13.67;7.43;;;;;;;;;;4995739;28;20803;-80
2021/05/11 07:30:12;;;;;;;19.07;7.80;;;17.00;1.00;;;;;;5006951;28;20465;-80
2021/05/11 07:32:43;;;;;;;13.70;7.70;;;;;;;;;;4992385;28;20484;-80
2021/05/11 07:35:09;;;;;;;14.00;7.67;;;;;;;;;;4989131;28;20444;-80
2021/05/11 07:37:39;;;;;;;13.60;7.07;;;;;;;;;;4991328;28;20407;-80
2021/05/11 07:40:06;;;;;;;11.60;6.40;;;17.50;1.00;;;;;;4990631;28;20438;-80
2021/05/11 07:42:32;;;;;;;10.10;6.63;;;;;;;;;;4997247;28;20400;-80
2021/05/11 07:45:01;;;;;;;12.00;7.20;;;;;;;;;;4995300;28;20416;-80
2021/05/11 07:56:39;;;;;;;10.77;6.03;;;;;;;;;;4996933;28;20760;-77
2021/05/11 08:28:51;;;;;;;8.63;6.00;;;18.80;1.00;;;;;;4996954;28;20799;-80
2021/05/11 08:31:33;;;;;;;12.13;6.20;;;18.90;1.00;;;;;;4995796;28;20758;-80
2021/05/11 08:33:59;;;;;;;12.93;6.03;;;19.00;1.00;;;;;;4996344;28;20980;-80
2021/05/11 08:36:26;;;;;;;8.70;5.43;;;;;;;;;;4996389;28;20482;-80
2021/05/11 08:39:04;;;;;;;8.87;5.47;;;19.20;1.00;;;;;;4996324;28;20175;-80
2021/05/11 08:41:33;;;;;;;7.67;5.40;;;19.20;1.00;;;;;;4996503;28;20410;-80
2021/05/11 08:44:16;;;;;;;15.50;5.33;;;19.50;1.00;;;;;;4995856;28;20536;-80
2021/05/11 08:46:42;;;;;;;6.77;4.93;;;19.80;1.00;;;;;;4996305;28;20423;-76
2021/05/11 08:49:12;;;;;;;9.87;4.30;;;;;;;;;;4996405;28;20896;-76
2021/05/11 08:51:54;;;;;;;6.67;4.63;;;;;;;;;;4996258;28;20400;-76
2021/05/11 08:54:31;;;;;;;7.20;4.60;;;20.00;1.00;;;;;;4995605;28;20490;-76
2021/05/11 09:04:35;;;;;;;11.67;5.00;;;;;;;;;;4996727;28;20391;-76
2021/05/11 09:06:18;;;;;;;13.47;4.50;;;20.60;1.00;;;;;;4936071;29;20917;-79
2021/05/11 09:09:01;;;;;;;7.30;4.90;;;20.40;1.00;;;;;;4936107;29;20437;-79
2021/05/11 09:33:09;;;;;;;7.53;4.90;;;21.40;1.00;;;;;;4934757;29;20416;-76
2021/05/11 09:56:08;;;;;;;7.60;4.30;;;;;;;;;;4975964;28;21034;-79
2021/05/11 10:49:29;;;;;;;4.27;2.70;;;21.90;1.00;;;;;;4918339;29;20429;-76
2021/05/11 10:52:10;;;;;;;4.53;2.70;;;21.80;1.00;;;;;;4944720;28;20783;-76
2021/05/11 10:54:45;;;;;;;3.40;2.70;;;21.80;1.00;;;;;;4980122;28;20435;-76
2021/05/11 11:00:22;;;;;;;6.03;2.80;;;21.90;1.00;;;;;;4975586;28;20384;-76
2021/05/11 11:03:26;;;;;;;3.10;2.33;;;21.90;1.00;;;;;;4992061;28;20421;-78
2021/05/11 11:05:56;;;;;;;15.73;2.23;;;21.70;1.00;;;;;;4933291;29;20946;-79
2021/05/11 11:08:29;;;;;;;3.80;2.73;;;21.80;1.00;;;;;;4930077;29;20916;-78
2021/05/11 11:11:21;;;;;;;4.90;2.70;;;21.70;1.00;;;;;;4926494;29;20463;-78
2021/05/11 11:13:54;;;;;;;5.53;3.10;;;21.50;1.00;;;;;;4917575;29;20445;-78
2021/05/11 11:16:20;;;;;;;2.70;2.23;;;21.30;1.00;;;;;;4933159;29;20450;-78
2021/05/11 11:18:47;;;;;;;13.57;3.47;;;21.10;1.00;;;;;;4932180;29;20423;-75
2021/05/11 11:21:22;;;;;;;7.63;2.50;;;21.10;1.00;;;;;;4927981;29;20984;-78
2021/05/11 11:23:53;;;;;;;6.73;3.07;;;21.00;1.00;;;;;;4917629;29;20545;-78
2021/05/11 11:26:33;;;;;;;6.60;2.77;;;20.90;1.00;;;;;;4917378;29;20420;-78
2021/05/11 11:29:07;;;;;;;16.73;3.27;;;20.90;1.00;;;;;;4933232;29;20394;-77
2021/05/11 11:31:34;;;;;;;6.97;2.80;;;21.00;1.00;;;;;;4932788;29;20431;-74
2021/05/11 11:34:20;;;;;;;3.17;2.40;;;21.00;1.00;;;;;;4933098;29;20374;-75
2021/05/11 11:37:00;;;;;;;2.67;2.30;;;21.20;1.00;;;;;;4933152;29;21019;-75
2021/05/11 11:39:36;;;;;;;3.43;2.13;;;21.20;1.00;;;;;;4933066;29;20483;-74
2021/05/11 11:42:05;;;;;;;7.00;2.90;;;21.30;1.00;;;;;;4952121;28;20406;-75
2021/05/11 11:44:36;;;;;;;10.30;2.30;;;21.30;1.00;;;;;;4973801;28;20474;-74
2021/05/11 11:47:07;;;;;;;11.80;2.33;;;21.30;1.00;;;;;;4985494;28;20410;-78
2021/05/11 11:49:43;;;;;;;25.07;4.07;;;21.60;1.00;;;;;;4996403;28;20432;-77
2021/05/11 12:00:18;;;;;;;2.20;1.93;;;22.00;1.00;;;;;;4997566;28;20452;-76
2021/05/11 12:03:32;;;;;;;1.80;1.70;;;22.20;1.00;;;;;;4997614;28;20506;-77
2021/05/11 12:06:04;;;;;;;2.20;1.80;;;22.40;1.00;;;;;;4997352;28;20399;-78
2021/05/11 12:08:30;;;;;;;3.47;1.63;;;22.80;1.00;;;;;;4997381;28;20483;-78
2021/05/11 12:11:08;;;;;;;8.37;1.80;;;22.80;1.00;;;;;;4997211;28;20468;-74
2021/05/11 12:13:37;;;;;;;7.00;2.10;;;22.80;1.00;;;;;;4997072;28;20386;-74
2021/05/11 12:16:22;;;;;;;1.97;1.50;;;22.80;1.00;;;;;;5008733;28;20554;-75
2021/05/11 12:22:04;;;;;;;5.80;1.70;;;22.50;1.00;;;;;;5007937;28;20801;-75
2021/05/11 12:24:34;;;;;;;5.03;1.90;;;22.30;1.00;;;;;;4995484;28;20806;-75
2021/05/11 12:27:19;;;;;;;1.90;1.70;;;22.20;1.00;;;;;;4987792;28;20426;-74
2021/05/11 12:30:06;;;;;;;3.73;1.90;;;;;;;;;;4995771;28;20406;-75
2021/05/11 12:32:35;;;;;;;4.30;1.70;;;;;;;;;;4980943;28;20495;-74
2021/05/11 12:35:08;;;;;;;2.03;1.50;;;21.60;1.00;;;;;;4983625;28;20453;-75
2021/05/11 12:37:50;;;;;;;2.40;1.60;;;21.40;1.00;;;;;;4988374;28;20614;-74
2021/05/11 12:40:26;;;;;;;184.17;16.57;;;21.40;1.00;;;;;;4988323;28;20450;-74
2021/05/11 12:42:56;;;;;;;6.43;1.50;;;21.40;1.00;;;;;;4993299;28;20507;-74
2021/05/11 12:45:22;;;;;;;2.73;1.40;;;;;;;;;;4994415;28;20413;-74
2021/05/11 12:48:02;;;;;;;4.93;1.53;;;21.10;1.00;;;;;;4995078;28;20830;-74
2021/05/11 12:50:32;;;;;;;2.90;1.10;;;20.80;1.00;;;;;;4994658;28;20921;-72
2021/05/11 12:53:07;;;;;;;1.77;1.00;;;;;;;;;;4995299;28;20429;-74
2021/05/11 13:02:07;;;;;;;3.67;1.90;;;19.50;1.00;;;;;;4995176;28;20437;-75
2021/05/11 13:23:21;;;;;;;2.60;1.43;;;;;;;;;;4995236;28;20396;-74
2021/05/11 13:25:54;;;;;;;4.47;1.27;;;;;;;;;;4994552;28;20369;-72
2021/05/11 13:34:13;;;;;;;1.87;1.30;;;;;;;;;;4914679;29;20428;-73
2021/05/11 13:36:41;;;;;;;3.00;1.10;;;17.80;1.00;;;;;;4915382;29;20480;-73
2021/05/11 13:39:11;;;;;;;2.50;1.20;;;17.80;1.00;;;;;;4915557;29;20416;-72
2021/05/11 13:41:37;;;;;;;2.90;1.30;;;17.80;1.00;;;;;;4914064;29;20501;-72
2021/05/11 13:44:04;;;;;;;4.37;1.30;;;17.70;1.00;;;;;;4914058;29;20452;-72
2021/05/11 13:46:31;;;;;;;5.43;1.73;;;;;;;;;;4914125;29;20523;-73
2021/05/11 13:48:57;;;;;;;2.80;1.00;;;;;;;;;;4915345;29;20964;-73
2021/05/11 13:51:23;;;;;;;1.80;1.10;;;;;;;;;;4911475;29;20934;-74
2021/05/11 13:53:55;;;;;;;3.03;1.30;;;17.50;1.00;;;;;;4911418;29;20462;-75
2021/05/11 13:56:40;;;;;;;5.93;1.27;;;17.50;1.00;;;;;;4899006;29;20444;-75
2021/05/11 14:04:29;;;;;;;1.83;1.00;;;;;;;;;;4915482;29;20463;-74
2021/05/11 14:06:55;;;;;;;7.87;1.40;;;;;;;;;;4955317;28;20392;-75
2021/05/11 14:09:21;;;;;;;4.20;1.60;;;;;;;;;;4990135;28;20806;-75
2021/05/11 14:11:48;;;;;;;78.90;7.13;;;;;;;;;;4990135;28;20440;-75
2021/05/11 14:14:15;;;;;;;1.57;1.33;;;17.20;1.00;;;;;;4992448;28;20440;-75
2021/05/11 14:16:43;;;;;;;1.83;1.37;;;17.40;1.00;;;;;;4994163;28;20472;-75
2021/05/11 14:19:09;;;;;;;3.47;1.63;;;;;;;;;;4982326;28;20426;-75
2021/05/11 14:21:35;;;;;;;2.97;1.73;;;;;;;;;;4977739;28;20909;-73
2021/05/11 14:24:02;;;;;;;3.47;1.37;;;;;;;;;;4993078;28;20383;-73
2021/05/11 14:26:28;;;;;;;11.80;2.47;;;17.20;1.00;;;;;;4991535;28;20433;-73
2021/05/11 14:28:56;;;;;;;4.37;1.90;;;;;;;;;;4988167;28;20974;-73
2021/05/11 14:31:24;;;;;;;8.43;2.10;;;17.20;1.00;;;;;;4987892;28;20528;-73
2021/05/11 14:34:10;;;;;;;10.23;2.70;;;;;;;;;;4990081;28;20404;-73
2021/05/11 14:36:36;;;;;;;2.00;1.33;;;;;;;;;;4985080;28;20442;-75
2021/05/11 14:39:05;;;;;;;2.10;1.70;;;17.20;1.00;;;;;;4988279;28;20429;-75
2021/05/11 14:41:31;;;;;;;9.30;1.73;;;17.30;1.00;;;;;;4993557;28;20403;-75
2021/05/11 14:44:04;;;;;;;4.40;1.80;;;17.50;1.00;;;;;;4989324;28;20458;-75
2021/05/11 14:46:51;;;;;;;10.30;2.60;;;17.60;1.00;;;;;;4986232;28;20910;-73
2021/05/11 14:49:19;;;;;;;2.77;1.70;;;17.70;1.00;;;;;;4991520;28;20920;-75
2021/05/11 14:51:45;;;;;;;5.53;1.87;;;;;;;;;;4993151;28;20467;-74
2021/05/11 14:54:11;;;;;;;4.10;1.93;;;17.60;1.00;;;;;;4994192;28;20842;-72
2021/05/11 14:56:40;;;;;;;3.17;1.70;;;;;;;;;;4977836;28;20552;-74
2021/05/11 14:59:27;;;;;;;3.20;1.70;;;17.70;1.00;;;;;;4978593;28;20422;-78
2021/05/11 15:01:58;;;;;;;2.50;1.40;;;;;;;;;;4977140;28;20423;-77
2021/05/11 15:04:28;;;;;;;2.20;1.47;;;;;;;;;;4980502;28;20933;-76
2021/05/11 15:06:54;;;;;;;1.17;1.07;;;;;;;;;;4991287;28;20440;-78
2021/05/11 15:09:20;;;;;;;8.50;1.40;;;17.60;1.00;;;;;;4994001;28;20422;-78
2021/05/11 15:11:46;;;;;;;10.10;1.90;;;;;;;;;;4992541;28;20403;-76
2021/05/11 15:14:21;;;;;;;5.03;1.17;;;17.70;1.00;;;;;;4989924;28;20429;-78
2021/05/11 15:17:58;;;;;;;4.70;1.00;;;17.70;1.00;;;;;;4993588;28;20835;-78
2021/05/11 15:20:10;;;;;;;4.83;1.00;;;17.80;1.00;;;;;;4992271;28;20396;-79
2021/05/11 15:22:36;;;;;;;4.00;0.80;;;17.90;1.00;;;;;;4994773;28;20483;-77
2021/05/11 15:25:04;;;;;;;8.70;1.30;;;18.00;1.00;;;;;;4979482;28;20517;-76
2021/05/11 15:27:30;;;;;;;5.20;1.13;;;18.00;1.00;;;;;;4982441;28;20438;-76
2021/05/11 15:30:10;;;;;;;1.27;0.80;;;18.00;1.00;;;;;;4998193;28;20465;-77
2021/05/11 15:32:41;;;;;;;1.97;0.80;;;18.00;1.00;;;;;;4993405;28;20458;-77
2021/05/11 15:35:15;;;;;;;0.83;0.77;;;18.00;1.00;;;;;;4992884;28;20465;-74
2021/05/11 15:37:42;;;;;;;1.90;0.80;;;17.90;1.00;;;;;;4993268;28;20521;-73
2021/05/11 15:40:11;;;;;;;1.17;0.70;;;17.80;1.00;;;;;;4985777;28;20422;-74
2021/05/11 15:42:37;;;;;;;2.70;0.70;;;17.80;1.00;;;;;;4996654;28;20767;-73
2021/05/11 15:45:05;;;;;;;7.60;1.30;;;17.90;1.00;;;;;;4996675;28;20413;-73
2021/05/11 15:47:31;;;;;;;2.30;0.87;;;;;;;;;;4982337;28;20402;-73
2021/05/11 15:49:57;;;;;;;2.70;0.90;;;;;;;;;;4978099;28;20802;-72
2021/05/11 15:53:09;;;;;;;3.43;1.00;;;17.90;1.00;;;;;;4978592;28;20427;-74
2021/05/11 15:55:38;;;;;;;4.10;0.97;;;17.70;1.00;;;;;;4983070;28;20487;-74
2021/05/11 15:58:04;;;;;;;3.83;1.00;;;17.70;1.00;;;;;;4997810;28;20490;-74
2021/05/11 16:00:38;;;;;;;2.20;1.00;;;17.60;1.00;;;;;;4997512;28;20741;-74
2021/05/11 16:03:10;;;;;;;4.20;0.90;;;;;;;;;;4997311;28;20399;-74
2021/05/11 16:05:46;;;;;;;6.13;1.10;;;17.40;1.00;;;;;;4993354;28;20444;-74
2021/05/11 16:08:22;;;;;;;2.13;0.93;;;17.30;1.00;;;;;;4995077;28;20930;-75
2021/05/11 16:10:48;;;;;;;4.00;0.87;;;17.30;1.00;;;;;;4997367;28;20483;-76
2021/05/11 16:13:23;;;;;;;5.30;0.90;;;17.40;1.00;;;;;;4977790;28;20368;-76
2021/05/11 16:15:59;;;;;;;3.07;1.17;;;17.30;1.00;;;;;;4991330;28;20465;-76
2021/05/11 16:18:29;;;;;;;8.73;1.33;;;;;;;;;;4982509;28;20934;-76
2021/05/11 16:20:55;;;;;;;1.57;0.80;;;;;;;;;;4977343;28;20947;-76
2021/05/11 16:23:21;;;;;;;1.37;0.70;;;17.10;1.00;;;;;;4994368;28;20486;-77
2021/05/11 16:25:52;;;;;;;2.03;0.80;;;17.10;1.00;;;;;;4996591;28;20423;-74
2021/05/11 16:28:21;;;;;;;1.37;1.00;;;;;;;;;;4996984;28;20197;-80
2021/05/11 16:30:51;;;;;;;0.80;0.70;;;;;;;;;;4995469;28;20414;-79
2021/05/11 16:33:22;;;;;;;0.80;0.70;;;;;;;;;;4996172;28;20922;-80
2021/05/11 16:36:21;;;;;;;1.63;0.90;;;16.90;1.00;;;;;;4992881;28;20538;-81
2021/05/11 16:39:39;;;;;;;6.30;1.00;;;16.80;1.00;;;;;;4989681;28;20424;-85
2021/05/11 16:42:21;;;;;;;1.03;0.60;;;16.80;1.00;;;;;;4977647;28;20389;-86
2021/05/11 16:45:21;;;;;;;2.03;0.70;;;16.80;1.00;;;;;;4995527;28;20436;-86
2021/05/11 16:50:51;;;;;;;1.90;0.90;;;16.50;1.00;;;;;;4996310;28;20374;-86
2021/05/11 16:53:22;;;;;;;5.83;0.80;;;;;;;;;;4995410;28;20483;-86
2021/05/11 16:55:48;;;;;;;1.87;1.00;;;16.30;1.00;;;;;;4994653;28;20477;-85
2021/05/11 16:58:14;;;;;;;0.73;0.63;;;;;;;;;;4996689;28;20371;-86
2021/05/11 17:00:46;;;;;;;5.70;1.17;;;;;;;;;;4996242;28;20425;-86
2021/05/11 17:03:45;;;;;;;2.90;0.70;;;16.50;1.00;;;;;;5011324;28;20795;-91
2021/05/11 17:09:33;;;;;;;0.80;0.80;;;16.50;1.00;;;;;;4996614;28;20425;-81
2021/05/11 17:12:39;;;;;;;2.00;0.73;;;16.60;1.00;;;;;;4996229;28;20406;-82
2021/05/11 17:15:10;;;;;;;1.00;0.70;;;;;;;;;;4984962;28;20628;-82
2021/05/11 17:17:46;;;;;;;2.03;1.00;;;16.50;1.00;;;;;;4976620;28;20402;-76
2021/05/11 17:20:19;;;;;;;0.70;0.70;;;16.40;1.00;;;;;;4979547;28;20399;-73
2021/05/11 17:22:48;;;;;;;1.83;1.13;;;16.40;1.00;;;;;;4986488;28;20414;-75
2021/05/11 17:25:33;;;;;;;7.83;1.47;;;16.10;1.00;;;;;;4978653;28;20397;-75
2021/05/11 17:28:22;;;;;;;2.30;1.00;;;16.20;1.00;;;;;;4985962;28;20468;-75
2021/05/11 17:30:57;;;;;;;7.10;1.27;;;16.30;1.00;;;;;;4979886;28;20421;-76
2021/05/11 17:33:39;;;;;;;6.70;1.37;;;16.20;1.00;;;;;;4995738;28;20488;-76
2021/05/11 17:36:06;;;;;;;7.90;1.33;;;16.00;1.00;;;;;;4999393;28;20610;-76
2021/05/11 17:38:32;;;;;;;4.73;1.20;;;16.00;1.00;;;;;;4976792;28;20395;-77
2021/05/11 17:41:05;;;;;;;4.20;1.37;;;15.90;1.00;;;;;;4977660;28;20444;-76
2021/05/11 17:43:34;;;;;;;1.93;1.20;;;;;;;;;;4994776;28;20872;-76
2021/05/11 17:46:04;;;;;;;5.43;1.47;;;15.90;1.00;;;;;;4995064;28;20396;-76
2021/05/11 17:48:33;;;;;;;1.77;1.20;;;15.80;1.00;;;;;;5010669;28;20399;-76
2021/05/11 17:50:59;;;;;;;1.47;0.97;;;15.80;1.00;;;;;;4995595;28;20408;-76
2021/05/11 17:53:25;;;;;;;10.43;1.53;;;15.80;1.00;;;;;;4995584;28;20409;-75
2021/05/11 17:55:52;;;;;;;3.73;1.50;;;;;;;;;;4994182;28;20452;-75
2021/05/11 17:58:21;;;;;;;5.77;1.70;;;15.80;1.00;;;;;;4995067;28;20573;-75
2021/05/11 18:00:48;;;;;;;3.50;1.50;;;;;;;;;;4995212;28;20413;-76
2021/05/11 18:03:33;;;;;;;9.33;1.60;;;15.70;1.00;;;;;;5009955;28;20416;-75
2021/05/11 18:05:59;;;;;;;4.60;1.40;;;15.70;1.00;;;;;;5004829;28;20407;-75
2021/05/11 18:08:33;;;;;;;5.80;1.40;;;15.50;1.00;;;;;;4995332;28;20579;-75
2021/05/11 18:11:03;;;;;;;6.43;1.47;;;15.60;1.00;;;;;;4995105;28;20410;-75
2021/05/11 18:13:32;;;;;;;2.30;1.10;;;;;;;;;;4994764;28;20396;-75
2021/05/11 18:16:08;;;;;;;4.00;1.30;;;15.60;1.00;;;;;;4995184;28;20476;-75
2021/05/11 18:18:52;;;;;;;2.53;1.13;;;15.50;1.00;;;;;;5010354;28;20882;-75
2021/05/11 18:21:27;;;;;;;6.53;1.60;;;15.40;1.00;;;;;;4995021;28;20880;-75
2021/05/11 18:24:04;;;;;;;4.13;1.50;;;17.00;1.00;;;;;;5010415;28;20413;-75
2021/05/11 18:26:33;;;;;;;15.60;2.90;;;15.40;1.00;;;;;;5008803;28;20794;-75
2021/05/11 18:29:04;;;;;;;3.17;1.30;;;15.50;1.00;;;;;;4984188;28;20424;-75
2021/05/11 18:31:33;;;;;;;1.20;1.10;;;15.50;1.00;;;;;;4994246;28;20433;-76
2021/05/11 18:34:04;;;;;;;2.20;1.20;;;15.40;1.00;;;;;;4994046;28;20459;-76
2021/05/11 18:39:16;;;;;;;2.90;1.47;;;15.20;1.00;;;;;;4989631;28;20416;-77